createdAt,value
2018-09-13T00:00:43.207Z,75.34
2018-09-13T00:03:12.579Z,74.84
2018-09-13T00:05:41.958Z,74.41
2018-09-13T00:08:11.348Z,73.89
2018-09-13T00:10:40.687Z,73.83
2018-09-13T00:13:10.028Z,73.29
2018-09-13T00:15:39.426Z,74.10
2018-09-13T00:18:08.758Z,74.15
2018-09-13T00:20:38.090Z,73.72
2018-09-13T00:23:08.382Z,73.08
2018-09-13T00:25:37.728Z,73.59
2018-09-13T00:28:07.173Z,73.43
2018-09-13T00:30:36.517Z,73.28
2018-09-13T00:33:05.857Z,73.17
2018-09-13T00:35:35.118Z,72.75
2018-09-13T00:38:04.416Z,72.95
2018-09-13T00:40:33.681Z,72.77
2018-09-13T00:43:02.971Z,73.28
2018-09-13T00:45:32.308Z,73.10
2018-09-13T00:48:02.013Z,72.78
2018-09-13T00:50:31.510Z,72.71
2018-09-13T00:53:00.819Z,72.91
2018-09-13T00:55:30.153Z,73.75
2018-09-13T00:57:59.466Z,73.82
2018-09-13T01:00:28.759Z,74.03
2018-09-13T01:02:58.049Z,73.58
2018-09-13T01:05:27.354Z,74.61
2018-09-13T01:07:57.242Z,74.79
2018-09-13T01:10:26.634Z,75.40
2018-09-13T01:12:55.990Z,75.89
2018-09-13T01:15:25.387Z,75.85
2018-09-13T01:17:54.773Z,75.72
2018-09-13T01:20:24.224Z,75.22
2018-09-13T01:22:53.586Z,75.50
2018-09-13T01:25:22.995Z,75.22
2018-09-13T01:27:52.401Z,75.90
2018-09-13T01:30:22.625Z,76.29
2018-09-13T01:32:52.102Z,76.17
2018-09-13T01:35:21.483Z,76.12
2018-09-13T01:37:50.988Z,75.21
2018-09-13T01:40:20.427Z,76.11
2018-09-13T01:42:49.789Z,76.22
2018-09-13T01:45:19.293Z,75.78
2018-09-13T01:47:48.973Z,75.29
2018-09-13T01:50:18.554Z,75.33
2018-09-13T01:52:48.264Z,75.30
2018-09-13T01:55:17.779Z,74.76
2018-09-13T01:57:47.280Z,75.06
2018-09-13T02:00:16.706Z,74.86
2018-09-13T02:02:46.194Z,74.81
2018-09-13T02:05:15.573Z,74.66
2018-09-13T02:07:45.213Z,74.47
2018-09-13T02:10:14.679Z,75.25
2018-09-13T02:12:44.149Z,74.97
2018-09-13T02:15:14.066Z,74.82
2018-09-13T02:17:43.624Z,76.45
2018-09-13T02:20:13.011Z,76.10
2018-09-13T02:22:42.837Z,75.86
2018-09-13T02:25:12.360Z,75.82
2018-09-13T02:27:41.802Z,75.96
2018-09-13T02:30:11.239Z,76.75
2018-09-13T02:32:40.804Z,77.14
2018-09-13T02:35:10.595Z,77.06
2018-09-13T02:37:40.478Z,76.15
2018-09-13T02:40:10.015Z,75.76
2018-09-13T02:42:39.335Z,75.37
2018-09-13T02:45:08.818Z,75.11
2018-09-13T02:47:38.271Z,75.86
2018-09-13T02:50:07.730Z,74.78
2018-09-13T02:52:37.251Z,74.76
2018-09-13T02:55:06.810Z,74.90
2018-09-13T02:57:36.116Z,75.27
2018-09-13T03:00:06.767Z,75.89
2018-09-13T03:02:36.065Z,75.56
2018-09-13T03:05:05.377Z,75.23
2018-09-13T03:07:34.736Z,75.00
2018-09-13T03:10:04.068Z,75.80
2018-09-13T03:12:33.367Z,75.73
2018-09-13T03:15:02.730Z,75.47
2018-09-13T03:17:32.044Z,75.12
2018-09-13T03:20:01.411Z,74.22
2018-09-13T03:22:31.125Z,75.18
2018-09-13T03:25:00.420Z,75.69
2018-09-13T03:27:29.748Z,76.90
2018-09-13T03:29:59.140Z,76.77
2018-09-13T03:32:28.486Z,76.66
2018-09-13T03:34:57.905Z,75.96
2018-09-13T03:37:27.249Z,75.58
2018-09-13T03:39:56.648Z,75.76
2018-09-13T03:42:25.948Z,75.73
2018-09-13T03:44:56.375Z,75.51
2018-09-13T03:47:25.675Z,76.43
2018-09-13T03:49:55.033Z,76.93
2018-09-13T03:52:24.494Z,76.86
2018-09-13T03:54:53.923Z,76.46
2018-09-13T03:57:23.217Z,76.30
2018-09-13T03:59:52.556Z,75.73
2018-09-13T04:02:21.853Z,76.73
2018-09-13T04:04:51.207Z,76.71
2018-09-13T04:07:20.809Z,76.37
2018-09-13T04:09:50.104Z,74.89
2018-09-13T04:12:19.504Z,75.44
2018-09-13T04:14:48.863Z,75.30
2018-09-13T04:17:18.266Z,75.59
2018-09-13T04:19:48.016Z,74.96
2018-09-13T04:22:18.154Z,74.70
2018-09-13T04:24:47.508Z,75.67
2018-09-13T04:27:16.878Z,75.60
2018-09-13T04:29:46.686Z,75.42
2018-09-13T04:32:16.021Z,74.76
2018-09-13T04:34:45.808Z,75.13
2018-09-13T04:37:15.165Z,74.93
2018-09-13T04:39:44.566Z,76.07
2018-09-13T04:42:13.963Z,75.40
2018-09-13T04:44:43.280Z,74.73
2018-09-13T04:47:12.630Z,74.88
2018-09-13T04:49:41.899Z,74.46
2018-09-13T04:52:11.352Z,74.52
2018-09-13T04:54:40.682Z,74.38
2018-09-13T04:57:10.170Z,73.93
2018-09-13T04:59:39.490Z,74.54
2018-09-13T05:02:08.848Z,74.33
2018-09-13T05:04:38.144Z,74.97
2018-09-13T05:07:07.616Z,74.88
2018-09-13T05:09:37.029Z,74.69
2018-09-13T05:12:06.366Z,74.76
2018-09-13T05:14:36.471Z,75.12
2018-09-13T05:17:05.803Z,74.41
2018-09-13T05:19:35.104Z,74.18
2018-09-13T05:22:04.521Z,73.48
2018-09-13T05:24:33.888Z,74.57
2018-09-13T05:27:03.258Z,73.87
2018-09-13T05:29:32.696Z,73.73
2018-09-13T05:32:02.094Z,73.98
2018-09-13T05:34:31.461Z,76.04
2018-09-13T05:37:01.361Z,76.89
2018-09-13T05:39:30.804Z,76.26
2018-09-13T05:42:00.168Z,76.11
2018-09-13T05:44:29.770Z,75.67
2018-09-13T05:46:59.121Z,75.38
2018-09-13T05:49:28.504Z,74.60
2018-09-13T05:51:58.135Z,74.07
2018-09-13T05:54:27.938Z,74.15
2018-09-13T05:56:57.342Z,74.70
2018-09-13T05:59:26.890Z,74.60
2018-09-13T06:01:56.237Z,74.72
2018-09-13T06:04:25.736Z,75.70
2018-09-13T06:06:55.095Z,75.08
2018-09-13T06:09:24.408Z,74.28
2018-09-13T06:11:53.714Z,74.34
2018-09-13T06:14:23.078Z,73.12
2018-09-13T06:16:52.347Z,72.93
2018-09-13T06:19:21.637Z,73.43
2018-09-13T06:21:51.281Z,72.85
2018-09-13T06:24:20.587Z,72.20
2018-09-13T06:26:49.996Z,70.18
2018-09-13T06:29:19.348Z,69.62
2018-09-13T06:31:48.702Z,68.78
2018-09-13T06:34:18.006Z,68.70
2018-09-13T06:36:47.424Z,67.03
2018-09-13T06:39:16.816Z,63.82
2018-09-13T06:41:46.175Z,64.57
2018-09-13T06:44:15.616Z,63.81
2018-09-13T06:46:45.011Z,63.10
2018-09-13T06:49:14.309Z,62.32
2018-09-13T06:51:43.781Z,62.56
2018-09-13T06:54:13.132Z,62.40
2018-09-13T06:56:42.496Z,61.58
2018-09-13T06:59:12.025Z,60.05
2018-09-13T07:01:41.353Z,61.03
2018-09-13T07:04:10.650Z,61.58
2018-09-13T07:06:40.495Z,61.32
2018-09-13T07:09:13.034Z,58.99
2018-09-13T07:11:42.955Z,56.96
2018-09-13T07:14:12.353Z,56.19
2018-09-13T07:16:41.657Z,53.08
2018-09-13T07:19:11.135Z,47.54
2018-09-13T07:21:40.465Z,42.13
2018-09-13T07:24:09.871Z,41.35
2018-09-13T07:26:39.615Z,41.09
2018-09-13T07:29:09.024Z,41.22
2018-09-13T07:31:38.488Z,41.13
2018-09-13T07:34:08.227Z,42.38
2018-09-13T07:36:37.617Z,42.54
2018-09-13T07:39:11.742Z,42.78
2018-09-13T07:41:41.148Z,42.41
2018-09-13T07:44:10.476Z,45.59
2018-09-13T07:46:40.155Z,47.32
2018-09-13T07:49:09.714Z,49.58
2018-09-13T07:51:39.072Z,50.54
2018-09-13T07:54:08.457Z,48.99
2018-09-13T07:56:37.836Z,48.76
2018-09-13T07:59:07.378Z,47.18
2018-09-13T08:01:36.785Z,46.59
2018-09-13T08:04:06.210Z,47.28
2018-09-13T08:06:35.542Z,50.35
2018-09-13T08:09:08.977Z,50.99
2018-09-13T08:11:38.339Z,52.34
2018-09-13T08:14:07.768Z,52.36
2018-09-13T08:16:37.141Z,51.56
2018-09-13T08:19:06.441Z,52.46
2018-09-13T08:21:35.842Z,53.39
2018-09-13T08:24:05.219Z,54.80
2018-09-13T08:26:34.526Z,54.40
2018-09-13T08:29:03.847Z,54.79
2018-09-13T08:31:33.734Z,52.28
2018-09-13T08:34:03.079Z,47.85
2018-09-13T08:36:32.407Z,48.73
2018-09-13T08:39:01.941Z,48.27
2018-09-13T08:41:31.279Z,45.54
2018-09-13T08:44:00.614Z,44.47
2018-09-13T08:46:30.154Z,44.89
2018-09-13T08:48:59.623Z,45.63
2018-09-13T08:51:29.022Z,43.70
2018-09-13T08:53:58.878Z,42.00
2018-09-13T08:56:28.274Z,38.94
2018-09-13T08:58:57.613Z,36.75
2018-09-13T09:01:27.001Z,36.74
2018-09-13T09:03:56.337Z,37.98
2018-09-13T09:06:25.724Z,33.43
2018-09-13T09:08:55.096Z,32.31
2018-09-13T09:11:24.402Z,29.38
2018-09-13T09:13:53.734Z,28.83
2018-09-13T09:16:23.333Z,30.70
2018-09-13T09:18:52.697Z,30.44
2018-09-13T09:21:22.252Z,29.74
2018-09-13T09:23:51.691Z,30.04
2018-09-13T09:26:21.073Z,34.28
2018-09-13T09:28:50.540Z,37.00
2018-09-13T09:31:19.935Z,38.15
2018-09-13T09:33:49.445Z,38.63
2018-09-13T09:36:18.885Z,39.04
2018-09-13T09:38:48.954Z,38.88
2018-09-13T09:41:18.259Z,39.55
2018-09-13T09:43:47.594Z,42.07
2018-09-13T09:46:16.904Z,44.89
2018-09-13T09:48:46.258Z,44.96
2018-09-13T09:51:15.615Z,43.82
2018-09-13T09:53:45.071Z,43.93
2018-09-13T09:56:14.462Z,43.99
2018-09-13T09:58:43.710Z,44.51
2018-09-13T10:01:18.493Z,44.15
2018-09-13T10:03:47.901Z,44.58
2018-09-13T10:06:17.235Z,45.99
2018-09-13T10:08:46.542Z,46.54
2018-09-13T10:11:15.898Z,45.81
2018-09-13T10:13:45.351Z,46.50
2018-09-13T10:16:20.518Z,46.54
2018-09-13T10:18:53.938Z,46.17
2018-09-13T10:21:28.562Z,45.44
2018-09-13T10:24:02.983Z,45.97
2018-09-13T10:26:37.510Z,45.85
2018-09-13T10:29:12.112Z,44.40
2018-09-13T10:31:47.188Z,44.81
2018-09-13T10:34:21.757Z,44.21
2018-09-13T10:36:56.232Z,43.78
2018-09-13T10:39:30.740Z,44.04
2018-09-13T10:42:05.460Z,44.71
2018-09-13T10:44:39.947Z,43.59
2018-09-13T10:47:15.130Z,42.50
2018-09-13T10:49:50.434Z,41.49
2018-09-13T18:39:53.385Z,60.49
2018-09-13T18:42:24.865Z,60.95
2018-09-13T18:44:54.372Z,61.26
2018-09-13T18:47:23.735Z,61.42
2018-09-13T18:49:53.083Z,61.50
2018-09-13T18:52:23.099Z,61.50
2018-09-13T18:54:52.423Z,61.54
2018-09-13T18:57:21.753Z,61.04
2018-09-13T18:59:52.134Z,61.41
2018-09-13T19:02:21.550Z,61.15
2018-09-13T19:04:50.818Z,61.86
2018-09-13T19:07:20.150Z,62.50
2018-09-13T19:09:49.954Z,62.84
2018-09-13T19:12:20.836Z,62.29
2018-09-13T19:14:50.242Z,62.13
2018-09-13T19:17:21.160Z,61.77
2018-09-13T19:19:50.961Z,61.89
2018-09-13T19:22:20.443Z,61.60
2018-09-13T19:24:50.165Z,62.84
2018-09-13T19:27:20.069Z,62.79
2018-09-13T19:29:49.448Z,63.51
2018-09-13T19:32:19.730Z,63.14
2018-09-13T19:34:49.281Z,64.36
2018-09-13T19:37:19.306Z,64.78
2018-09-13T19:39:49.138Z,65.36
2018-09-13T19:42:20.087Z,65.46
2018-09-13T19:44:50.795Z,65.47
2018-09-13T19:47:20.982Z,65.21
2018-09-13T19:49:51.168Z,64.82
2018-09-13T19:52:21.399Z,65.46
2018-09-13T19:54:51.275Z,66.35
2018-09-13T19:57:21.786Z,65.98
2018-09-13T19:59:51.119Z,66.23
2018-09-13T20:02:21.202Z,66.01
2018-09-13T20:04:50.559Z,65.65
2018-09-13T20:07:20.893Z,66.32
2018-09-13T20:09:50.235Z,66.39
2018-09-13T20:12:19.723Z,67.01
2018-09-13T20:14:48.986Z,66.55
2018-09-13T20:17:18.384Z,66.56
2018-09-13T20:19:47.890Z,66.50
2018-09-13T20:22:17.408Z,67.27
2018-09-13T20:24:47.029Z,67.32
2018-09-13T20:27:16.288Z,66.63
2018-09-13T20:29:45.578Z,67.23
2018-09-13T20:32:14.935Z,67.33
2018-09-13T20:34:44.253Z,67.38
2018-09-13T20:37:13.641Z,67.45
2018-09-13T20:39:43.553Z,68.37
2018-09-13T20:42:12.980Z,67.94
2018-09-13T20:44:43.121Z,67.87
2018-09-13T20:47:12.657Z,68.87
2018-09-13T20:49:42.084Z,69.35
2018-09-13T20:52:11.438Z,69.35
2018-09-13T20:54:40.880Z,69.07
2018-09-13T20:57:10.275Z,68.98
2018-09-13T20:59:39.840Z,68.65
2018-09-13T21:02:09.752Z,68.78
2018-09-13T21:04:39.118Z,69.03
2018-09-13T21:07:08.617Z,69.52
2018-09-13T21:09:38.456Z,68.67
2018-09-13T21:12:07.941Z,68.59
2018-09-13T21:14:37.750Z,69.37
2018-09-13T21:17:07.226Z,68.87
2018-09-13T21:19:36.539Z,69.02
2018-09-13T21:22:05.901Z,68.70
2018-09-13T21:24:35.254Z,68.85
2018-09-13T21:27:04.819Z,68.45
2018-09-13T21:29:34.211Z,68.46
2018-09-13T21:32:03.894Z,68.77
2018-09-13T21:34:33.187Z,68.49
2018-09-13T21:37:02.521Z,68.54
2018-09-13T21:39:32.046Z,69.74
2018-09-13T21:42:01.386Z,70.11
2018-09-13T21:44:30.801Z,70.15
2018-09-13T21:47:00.215Z,69.37
2018-09-13T21:49:29.583Z,70.43
2018-09-13T21:51:58.882Z,70.33
2018-09-13T21:54:28.231Z,70.94
2018-09-13T21:56:57.512Z,70.69
2018-09-13T21:59:26.791Z,70.57
2018-09-13T22:01:56.114Z,70.57
2018-09-13T22:04:25.429Z,70.68
2018-09-13T22:06:54.717Z,70.31
2018-09-13T22:09:24.015Z,70.97
2018-09-13T22:11:53.368Z,71.72
2018-09-13T22:14:22.859Z,71.27
2018-09-13T22:16:52.675Z,71.77
2018-09-13T22:19:22.104Z,71.55
2018-09-13T22:21:51.471Z,71.77
2018-09-13T22:24:20.950Z,70.47
2018-09-13T22:26:50.259Z,70.75
2018-09-13T22:29:19.617Z,70.42
2018-09-13T22:31:49.032Z,70.37
2018-09-13T22:34:18.523Z,71.08
2018-09-13T22:36:47.835Z,70.72
2018-09-13T22:39:17.227Z,70.62
2018-09-13T22:41:46.524Z,70.73
2018-09-13T22:44:16.196Z,70.10
2018-09-13T22:46:45.542Z,70.16
2018-09-13T22:49:14.809Z,70.92
2018-09-13T22:51:44.080Z,70.66
2018-09-13T22:54:20.574Z,70.40
2018-09-13T22:56:49.974Z,71.08
2018-09-13T22:59:19.370Z,70.47
2018-09-13T23:01:49.886Z,70.72
2018-09-13T23:04:19.318Z,71.52
2018-09-13T23:06:48.736Z,71.93
2018-09-13T23:09:18.104Z,71.43
2018-09-13T23:11:47.447Z,71.81
2018-09-13T23:14:16.775Z,71.96
2018-09-13T23:16:49.579Z,71.54
2018-09-13T23:19:15.794Z,71.91
2018-09-13T23:21:45.154Z,71.67
2018-09-13T23:24:14.487Z,72.09
2018-09-13T23:26:43.758Z,72.97
2018-09-13T23:29:13.056Z,72.83
2018-09-13T23:31:42.397Z,72.32
2018-09-13T23:34:11.636Z,71.89
2018-09-13T23:36:40.986Z,72.19
2018-09-13T23:39:11.420Z,72.17
2018-09-13T23:41:41.576Z,72.46
2018-09-13T23:44:10.851Z,72.90
2018-09-13T23:46:40.758Z,74.27
2018-09-13T23:49:10.044Z,73.95
2018-09-13T23:51:39.382Z,73.51
2018-09-13T23:54:08.795Z,73.67
2018-09-13T23:56:38.085Z,73.40
2018-09-13T23:59:07.396Z,72.93
